Latest Weather Observations for Mildura

IDV60801

Issued at 4:12 pm EDT Sunday 29 November 2020 (issued every 10 minutes, with the page automatically refreshed every 10 minutes)

About weather observations | Map of weather stations | Latest weather observations for VIC | Other Formats
Station Details ID: 076031 Name: MILDURA AIRPORT Lat: -34.24 Lon: 142.09 Height: 50.0 m
Data from the previous 72 hours. | See also: Recent months at Mildura
Date/Time
EDT
Temp
°C
App
Temp
°C
Dew
Point
°C
Rel
Hum
%
Delta-T
°C
Wind Press
QNH
hPa
Press
MSL
hPa
Rain since
9am
mm
Dir  Spd
km/h
Gust
km/h
Spd
kts
Gust
kts
29/04:00pm 26.6 21.9 3.2 22 11.6 SW 17 30 9 16 1010.7 1010.6 0.0
29/03:30pm 26.5 22.0 4.3 24 11.2 SSW 17 26 9 14 1010.9 1010.8 0.0
29/03:00pm 26.9 22.7 4.0 23 11.5 SE 15 24 8 13 1011.0 1010.9 0.0
29/02:30pm 25.6 21.5 4.1 25 10.7 SSW 15 24 8 13 1011.6 1011.5 0.0
29/02:00pm 25.4 22.2 5.1 27 10.3 S 11 20 6 11 1011.5 1011.4 0.0
29/01:30pm 23.8 19.8 4.7 29 9.5 SSW 15 24 8 13 1011.7 1011.6 0.0
29/01:00pm 24.2 20.6 5.1 29 9.6 SSW 13 30 7 16 1011.6 1011.5 0.0
29/12:30pm 23.1 18.9 5.5 32 8.9 S 17 28 9 15 1011.7 1011.6 0.0
29/12:00pm 22.6 17.9 6.0 34 8.4 SSW 20 35 11 19 1012.0 1011.9 0.0
29/11:30am 21.4 16.9 6.1 37 7.7 SSW 19 32 10 17 1011.9 1011.8 0.0
29/11:00am 20.5 16.1 6.5 40 7.1 S 19 28 10 15 1012.1 1012.0 0.0
29/10:30am 20.5 15.9 6.5 40 7.1 SSW 20 32 11 17 1012.5 1012.4 0.0
29/10:00am 19.7 15.2 7.1 44 6.4 S 20 30 11 16 1012.2 1012.1 0.0
29/09:30am 19.5 15.1 7.3 45 6.2 SSW 20 35 11 19 1012.0 1011.9 0.0
29/09:00am 17.9 12.9 7.9 52 5.1 SSW 24 39 13 21 1011.0 1010.9 0.0
29/08:30am 17.4 12.6 8.8 57 4.4 SSW 24 35 13 19 1010.7 1010.6 0.0
29/08:00am 17.0 13.0 8.9 59 4.2 SW 20 35 11 19 1010.2 1010.1 0.0
29/07:30am 16.6 12.7 8.8 60 4.0 SW 19 30 10 16 1010.1 1010.0 0.0
29/07:00am 16.8 13.7 9.0 60 4.0 SW 15 24 8 13 1009.3 1009.2 0.0
29/06:30am 16.7 12.2 10.1 65 3.5 SW 24 41 13 22 1008.6 1008.5 0.0
29/06:00am 17.3 12.9 10.4 64 3.7 SW 24 41 13 22 1008.0 1007.9 0.0
29/05:30am 18.0 12.9 10.6 62 4.0 SW 28 48 15 26 1007.5 1007.3 0.0
29/05:25am 18.2 13.2 10.8 62 4.0 SW 28 50 15 27 1007.3 1007.1 0.0
29/05:00am 18.7 15.1 12.9 69 3.3 SW 24 41 13 22 1006.6 1006.4 0.0
29/04:30am 19.2 16.1 13.4 69 3.3 SW 22 39 12 21 1006.0 1005.8 0.0
29/04:00am 19.1 15.2 13.3 69 3.3 SW 26 44 14 24 1005.8 1005.6 0.0
29/03:38am 19.5 14.9 13.4 68 3.5 WSW 30 50 16 27 1006.0 1005.8 0.0
29/03:30am 19.7 16.2 13.4 67 3.6 WSW 24 37 13 20 1005.8 1005.6 0.0
29/03:00am 20.2 18.0 13.4 65 3.9 WSW 17 28 9 15 1005.0 1004.8 0.0
29/02:30am 20.6 15.7 13.6 64 4.0 SW 32 50 17 27 1004.7 1004.5 0.0
29/02:05am 21.4 16.2 12.8 58 4.9 WSW 32 52 17 28 1004.5 1004.3 0.0
29/02:00am 21.5 16.3 12.9 58 4.9 WSW 32 46 17 25 1004.3 1004.1 0.0
29/01:33am 22.9 18.1 14.7 60 4.9 WSW 33 54 18 29 1003.6 1003.4 0.0
29/01:30am 22.9 18.3 14.7 60 4.9 WSW 32 54 17 29 1003.6 1003.4 0.0
29/01:10am 25.8 21.5 13.3 46 7.3 WSW 28 57 15 31 1003.4 1003.2 0.0
29/01:00am 28.9 25.1 9.1 29 11.0 SW 19 26 10 14 1002.4 1002.2 0.0
29/12:30am 29.4 25.8 8.5 27 11.5 SW 17 28 9 15 1001.9 1001.7 0.0
29/12:00am 29.7 26.1 8.2 26 11.9 SW 17 28 9 15 1002.3 1002.1 0.0
 
Date/Time
EDT
Temp
°C
App
Temp
°C
Dew
Point
°C
Rel
Hum
%
Delta-T
°C
Wind Press
QNH
hPa
Press
MSL
hPa
Rain since
9am
mm
Dir  Spd
km/h
Gust
km/h
Spd
kts
Gust
kts
28/11:30pm 30.0 27.0 7.8 25 12.1 S 13 20 7 11 1000.3 1000.1 0.0
28/11:00pm 30.7 27.3 7.8 24 12.6 S 15 22 8 12 1000.5 1000.3 0.0
28/10:30pm 31.3 27.2 7.7 23 13.0 S 19 32 10 17 1000.1 999.9 0.0
28/10:00pm 32.0 26.9 7.6 22 13.5 SSW 24 37 13 20 999.7 999.5 0.0
28/09:30pm 32.9 26.9 7.0 20 14.2 SSW 28 46 15 25 999.2 999.0 0.0
28/09:00pm 35.0 27.9 5.4 16 16.1 SW 32 50 17 27 998.3 998.1 0.0
28/08:41pm 36.9 30.0 2.8 12 17.8 SW 28 50 15 27 997.9 997.7 0.0
28/08:30pm 37.7 32.1 0.9 10 18.8 WSW 20 33 11 18 997.7 997.5 0.0
28/08:00pm 38.6 34.4 1.6 10 19.3 WSW 13 20 7 11 997.0 996.9 0.0
28/07:30pm 39.9 34.3 1.1 9 20.1 WSW 20 33 11 18 996.7 996.6 0.0
28/07:00pm 40.9 35.4 1.8 9 20.7 WSW 20 32 11 17 996.2 996.1 0.0
28/06:30pm 41.7 35.2 2.4 9 21.0 WSW 26 41 14 22 995.8 995.7 0.0
28/06:00pm 41.6 35.8 2.3 9 21.1 WSW 22 33 12 18 995.9 995.8 0.0
28/05:30pm 43.2 37.6 3.5 9 21.7 WSW 22 33 12 18 995.8 995.7 0.0
28/05:00pm 43.6 38.3 2.1 8 22.4 W 19 33 10 18 995.8 995.7 0.0
28/04:30pm 44.1 39.0 4.2 9 22.1 WSW 20 37 11 20 996.1 996.0 0.0
28/04:07pm 44.2 36.9 2.6 8 22.6 NW 30 56 16 30 996.0 995.9 0.0
28/04:00pm 44.6 38.2 1.0 7 23.3 NW 24 43 13 23 996.3 996.2 0.0
28/03:40pm 44.8 38.0 3.0 8 22.9 NW 28 50 15 27 996.7 996.6 0.0
28/03:30pm 44.5 37.6 2.8 8 22.7 NW 28 43 15 23 996.9 996.8 0.0
28/03:21pm 45.3 38.2 1.5 7 23.5 WNW 28 52 15 28 997.0 996.9 0.0
28/03:00pm 44.4 37.9 2.7 8 22.8 WNW 26 39 14 21 997.6 997.4 0.0
28/02:30pm 43.9 38.1 2.4 8 22.4 NW 22 35 12 19 998.3 998.1 0.0
28/02:00pm 43.3 37.1 1.9 8 22.2 NW 24 37 13 20 998.8 998.6 0.0
28/01:31pm 43.7 36.7 2.2 8 22.3 NW 28 46 15 25 999.4 999.2 0.0
28/01:30pm 43.9 37.0 2.4 8 22.4 NW 28 44 15 24 999.4 999.2 0.0
28/01:03pm 43.3 36.9 5.1 10 21.4 NNW 28 46 15 25 1000.0 999.8 0.0
28/01:00pm 43.0 36.6 3.4 9 21.7 NNW 26 48 14 26 1000.1 999.9 0.0
28/12:45pm 43.1 36.4 3.4 9 21.7 NNW 28 46 15 25 1000.3 1000.1 0.0
28/12:30pm 43.3 36.9 5.1 10 21.4 NNW 28 43 15 23 1000.7 1000.5 0.0
28/12:00pm 42.5 36.3 4.5 10 21.1 NNW 26 41 14 22 1001.3 1001.1 0.0
28/11:30am 42.2 36.4 4.3 10 20.9 NNW 24 35 13 19 1001.9 1001.7 0.0
28/11:00am 40.6 36.0 5.7 12 19.5 NNW 19 32 10 17 1002.3 1002.1 0.0
28/10:30am 38.3 34.2 6.1 14 17.9 NW 17 26 9 14 1002.9 1002.7 0.0
28/10:00am 37.2 33.9 6.3 15 17.2 N 13 19 7 10 1003.5 1003.3 0.0
28/09:30am 35.3 31.5 5.7 16 16.1 NNW 15 20 8 11 1004.0 1003.8 0.0
28/09:00am 34.0 30.7 6.3 18 15.1 NNW 13 22 7 12 1004.1 1003.9 0.0
28/08:30am 32.7 29.9 6.8 20 14.1 N 11 15 6 8 1004.0 1003.8 0.0
28/08:00am 31.7 29.2 6.7 21 13.6 N 9 15 5 8 1003.9 1003.7 0.0
28/07:30am 29.9 27.4 6.5 23 12.5 N 9 13 5 7 1003.8 1003.6 0.0
28/07:00am 26.5 24.7 9.4 34 9.5 NNE 9 13 5 7 1003.6 1003.4 0.0
28/06:30am 25.4 23.4 8.8 35 9.0 N 9 13 5 7 1003.5 1003.3 0.0
28/06:00am 25.6 23.4 7.7 32 9.6 NNE 9 11 5 6 1003.4 1003.2 0.0
28/05:30am 24.9 23.8 7.1 32 9.3 ENE 2 6 1 3 1003.4 1003.2 0.0
28/05:00am 27.2 25.8 7.1 28 10.7 NW 4 9 2 5 1003.5 1003.3 0.0
28/04:30am 29.4 26.0 6.1 23 12.3 N 13 17 7 9 1003.3 1003.1 0.0
28/04:00am 28.6 26.8 7.2 26 11.5 NNE 6 15 3 8 1003.6 1003.4 0.0
28/03:30am 26.5 25.8 7.0 29 10.3 CALM 0 0 0 0 1004.0 1003.8 0.0
28/03:00am 26.5 25.2 7.5 30 10.2 S 4 7 2 4 1004.3 1004.1 0.0
28/02:30am 28.0 26.2 5.6 24 11.7 SW 4 13 2 7 1004.6 1004.4 0.0
28/02:00am 28.3 27.5 6.4 25 11.6 CALM 0 6 0 3 1004.9 1004.7 0.0
28/01:30am 27.9 25.9 7.2 27 11.1 S 7 11 4 6 1005.2 1005.0 0.0
28/01:00am 28.8 26.4 8.5 28 11.2 NNE 11 13 6 7 1005.4 1005.2 0.0
28/12:30am 28.8 26.9 10.5 32 10.4 NNE 11 13 6 7 1005.6 1005.4 0.0
28/12:00am 29.5 27.4 9.6 29 11.2 NNE 11 13 6 7 1005.9 1005.7 0.0
 
Date/Time
EDT
Temp
°C
App
Temp
°C
Dew
Point
°C
Rel
Hum
%
Delta-T
°C
Wind Press
QNH
hPa
Press
MSL
hPa
Rain since
9am
mm
Dir  Spd
km/h
Gust
km/h
Spd
kts
Gust
kts
27/11:30pm 29.7 27.1 7.6 25 12.0 NNE 11 11 6 6 1006.1 1005.9 0.0
27/11:00pm 30.0 28.2 7.8 25 12.2 NNE 7 9 4 5 1006.3 1006.1 0.0
27/10:30pm 30.4 29.3 7.0 23 12.6 NNE 2 7 1 4 1006.4 1006.2 0.0
27/10:00pm 31.0 29.3 7.5 23 12.9 NNE 6 6 3 3 1006.3 1006.1 0.0
27/09:30pm 32.8 31.7 8.3 22 13.7 N 4 6 2 3 1006.3 1006.1 0.0
27/09:00pm 33.4 31.5 6.6 19 14.7 N 6 7 3 4 1006.3 1006.1 0.0
27/08:30pm 35.9 34.1 3.2 13 17.1 N 2 6 1 3 1006.3 1006.1 0.0
27/08:00pm 39.1 35.5 0.5 9 19.8 NNW 9 13 5 7 1006.2 1006.0 0.0
27/07:30pm 39.6 36.4 0.9 9 20.0 NNW 7 11 4 6 1006.2 1006.0 0.0
27/07:00pm 40.2 35.7 -0.3 8 20.6 NNW 13 20 7 11 1006.1 1005.9 0.0
27/06:30pm 40.4 35.9 -0.2 8 20.7 NNW 13 22 7 12 1006.2 1006.0 0.0
27/06:00pm 40.7 36.2 0.0 8 20.9 NNW 13 24 7 13 1006.3 1006.1 0.0
27/05:30pm 41.7 36.6 0.8 8 21.3 NNW 17 26 9 14 1006.5 1006.3 0.0
27/05:00pm 42.0 36.4 1.0 8 21.5 NNW 20 30 11 16 1006.7 1006.5 0.0
27/04:30pm 41.3 35.8 0.5 8 21.1 NNW 19 28 10 15 1007.0 1006.8 0.0
27/04:28pm - - - - - NNW 19 - 10 - - 1006.9 -
27/04:00pm 41.4 36.3 0.5 8 21.2 NNW 17 24 9 13 1007.3 1007.1 0.0
27/03:30pm 41.1 35.6 2.0 9 20.7 NNW 20 35 11 19 1007.8 1007.7 0.0
27/03:00pm 40.8 36.2 1.7 9 20.6 NNW 15 24 8 13 1008.3 1008.2 0.0
27/02:30pm 40.8 35.5 1.7 9 20.6 NW 19 30 10 16 1008.9 1008.8 0.0
27/02:00pm 40.5 35.8 3.0 10 20.1 NW 17 33 9 18 1009.5 1009.4 0.0
27/01:30pm 40.2 34.9 2.8 10 19.9 NW 20 33 11 18 1009.9 1009.8 0.0
27/01:00pm 39.9 33.8 2.5 10 19.8 N 24 35 13 19 1010.2 1010.1 0.0
27/12:30pm 39.7 35.0 5.0 12 19.1 NNW 19 28 10 15 1010.6 1010.5 0.0
27/12:00pm 38.4 33.7 5.1 13 18.2 NNW 19 37 10 20 1010.9 1010.8 0.0
27/11:30am 37.8 33.0 5.7 14 17.6 N 20 30 11 16 1011.2 1011.1 0.0
27/11:00am 36.6 31.8 5.8 15 16.9 N 20 32 11 17 1011.3 1011.2 0.0
27/10:30am 35.6 31.3 6.8 17 15.9 NNE 19 26 10 14 1011.5 1011.4 0.0
27/10:00am 33.8 28.9 7.0 19 14.7 NNE 22 26 12 14 1011.6 1011.5 0.0
27/09:30am 32.1 27.8 7.7 22 13.5 NNE 20 26 11 14 1011.9 1011.8 0.0
27/09:00am 30.5 25.9 8.3 25 12.3 NNE 22 28 12 15 1011.8 1011.7 0.0
27/08:30am 28.1 23.7 8.9 30 10.6 NNE 22 28 12 15 1011.8 1011.7 0.0
27/08:00am 26.2 22.2 9.1 34 9.4 NNE 20 26 11 14 1011.6 1011.5 0.0
27/07:30am 23.9 20.8 8.7 38 8.2 NE 15 17 8 9 1011.5 1011.4 0.0
27/07:00am 22.5 20.1 8.6 41 7.4 NE 11 13 6 7 1011.3 1011.2 0.0
27/06:30am 21.6 19.2 8.5 43 6.9 NE 11 15 6 8 1010.9 1010.8 0.0
27/06:00am 21.9 19.0 8.1 41 7.3 NE 13 15 7 8 1010.7 1010.6 0.0
27/05:30am 21.6 18.8 8.5 43 6.9 NE 13 17 7 9 1010.6 1010.5 0.0
27/05:00am 21.3 18.8 8.2 43 6.9 NE 11 13 6 7 1010.7 1010.6 0.0
27/04:30am 22.1 19.0 7.1 38 7.7 NE 13 15 7 8 1010.6 1010.5 0.0
27/04:00am 21.2 19.2 7.1 40 7.2 ENE 7 9 4 5 1010.8 1010.7 0.0
27/03:30am 21.6 19.6 7.1 39 7.5 ENE 7 11 4 6 1011.1 1011.0 0.0
27/03:00am 21.5 19.2 7.3 40 7.3 ENE 9 11 5 6 1011.3 1011.2 0.0
27/02:30am 21.5 21.0 7.7 41 7.2 CALM 0 0 0 0 1011.5 1011.4 0.0
27/02:00am 21.7 21.0 6.8 38 7.6 CALM 0 0 0 0 1011.8 1011.7 0.0
27/01:30am 22.5 21.7 6.3 35 8.3 CALM 0 6 0 3 1012.0 1011.9 0.0
27/01:00am 23.4 21.9 6.7 34 8.6 S 4 6 2 3 1012.3 1012.2 0.0
27/12:30am 24.2 21.6 6.0 31 9.3 SSW 9 9 5 5 1012.5 1012.4 0.0
27/12:00am 25.0 23.4 6.2 30 9.7 SE 4 6 2 3 1012.4 1012.3 0.0
 
Date/Time
EDT
Temp
°C
App
Temp
°C
Dew
Point
°C
Rel
Hum
%
Delta-T
°C
Wind Press
QNH
hPa
Press
MSL
hPa
Rain since
9am
mm
Dir  Spd
km/h
Gust
km/h
Spd
kts
Gust
kts
26/11:30pm 26.6 23.9 5.5 26 10.9 SSE 9 13 5 7 1012.6 1012.5 0.0
26/11:00pm 26.9 24.1 5.2 25 11.1 SSE 9 11 5 6 1012.5 1012.4 0.0
26/10:30pm 28.0 25.5 5.0 23 11.8 SSE 7 9 4 5 1012.4 1012.3 0.0
26/10:00pm 29.3 26.0 4.7 21 12.7 SSE 11 15 6 8 1012.1 1012.0 0.0
26/09:30pm 30.3 27.1 4.9 20 13.2 SSE 11 17 6 9 1011.9 1011.8 0.0
26/09:00pm 31.1 27.8 4.8 19 13.8 S 11 17 6 9 1011.5 1011.4 0.0
26/08:30pm 31.8 29.3 4.6 18 14.2 SSE 7 9 4 5 1011.1 1011.0 0.0
26/08:00pm 33.8 30.3 3.6 15 15.7 SSE 11 17 6 9 1010.7 1010.6 0.0
26/07:30pm 35.2 31.2 2.6 13 16.8 S 13 22 7 12 1010.4 1010.3 0.0
26/07:00pm 35.6 32.0 3.0 13 17.0 S 11 17 6 9 1010.0 1009.9 0.0
26/06:30pm 36.5 33.4 1.3 11 17.9 ESE 7 17 4 9 1009.7 1009.6 0.0
26/06:00pm 36.7 32.5 1.5 11 18.0 S 13 24 7 13 1009.7 1009.6 0.0
26/05:30pm 37.4 32.9 2.0 11 18.3 S 15 24 8 13 1009.6 1009.5 0.0
26/05:00pm 37.4 34.2 0.7 10 18.7 SW 7 17 4 9 1009.6 1009.5 0.0
26/04:30pm 36.5 32.6 1.3 11 17.9 ESE 11 20 6 11 1009.7 1009.6 0.0

Other formats

Comma delimited format used in spreadsheet applications
http://www.bom.gov.au/fwo/IDV60801/IDV60801.94693.axf

JavaScript Object Notation format (JSON) in row-major order
http://www.bom.gov.au/fwo/IDV60801/IDV60801.94693.json

Data quality

Most of these data are generated automatically and are frequently updated. Quality checks on data are not normally performed. It is possible for incorrect values to appear. Refer to information at About Latest Weather Observations and please check the disclaimer before using these data.